Time;durP1;ratioP1;P1;durP2;ratioP2;P2;SDS_P1;SDS_P2;PMS_P1;PMS_P2;Temp;Humidity;BMP_temperature;BMP_pressure;BME280_temperature;BME280_humidity;BME280_pressure;Samples;Min_cycle;Max_cycle;Signal;HPM_P1;HPM_P2
2023/12/21 00:00:41;;;;;;;20.83;6.93;;;;;;;7.93;100.00;100646.22;4895564;29;20368;-81
2023/12/21 00:03:06;;;;;;;22.35;7.28;;;;;;;7.93;100.00;100651.56;4897947;29;20040;-78
2023/12/21 00:05:32;;;;;;;19.25;6.88;;;;;;;7.95;100.00;100640.78;4915633;29;20614;-80
2023/12/21 00:07:57;;;;;;;21.15;7.30;;;;;;;7.95;100.00;100633.63;4891197;29;20125;-78
2023/12/21 00:10:22;;;;;;;20.25;6.72;;;;;;;7.95;100.00;100616.69;4912532;29;20100;-79
2023/12/21 00:12:47;;;;;;;25.75;7.38;;;;;;;7.96;100.00;100613.91;4893204;29;20035;-78
2023/12/21 00:15:13;;;;;;;20.42;7.32;;;;;;;7.96;100.00;100600.53;4913332;29;20376;-79
2023/12/21 00:17:38;;;;;;;21.63;6.90;;;;;;;7.96;100.00;100603.19;4910327;29;20127;-79
2023/12/21 00:20:04;;;;;;;18.67;6.53;;;;;;;7.96;100.00;100595.16;4889177;29;20096;-78
2023/12/21 00:22:30;;;;;;;19.35;7.00;;;;;;;7.98;100.00;100603.97;4905165;29;20400;-79
2023/12/21 00:24:55;;;;;;;24.60;7.53;;;;;;;7.99;100.00;100594.13;4895561;29;20025;-78
2023/12/21 00:27:20;;;;;;;21.63;7.20;;;;;;;7.97;100.00;100591.53;4897003;29;20048;-77
2023/12/21 00:29:45;;;;;;;20.60;6.97;;;;;;;7.97;100.00;100578.16;4902569;29;20096;-78
2023/12/21 00:32:11;;;;;;;18.48;6.93;;;;;;;7.98;100.00;100571.88;4896207;29;20044;-78
2023/12/21 00:34:36;;;;;;;20.63;7.45;;;;;;;7.98;100.00;100570.97;4912936;29;20055;-79
2023/12/21 00:37:01;;;;;;;20.73;8.05;;;;;;;7.98;100.00;100565.63;4910687;29;20028;-78
2023/12/21 00:39:27;;;;;;;24.55;7.93;;;;;;;7.96;100.00;100573.75;4912798;29;20020;-78
2023/12/21 00:41:52;;;;;;;21.58;7.80;;;;;;;7.95;100.00;100566.72;4908568;29;20069;-78
2023/12/21 00:44:17;;;;;;;19.15;7.88;;;;;;;7.94;100.00;100559.63;4909970;29;20032;-79
2023/12/21 00:46:43;;;;;;;22.05;8.00;;;;;;;7.94;100.00;100551.63;4910017;29;20477;-79
2023/12/21 00:49:08;;;;;;;20.45;7.70;;;;;;;7.96;100.00;100548.84;4905771;29;20127;-79
2023/12/21 00:51:33;;;;;;;23.17;8.60;;;;;;;7.95;100.00;100539.97;4904008;29;20430;-78
2023/12/21 00:53:59;;;;;;;25.27;9.57;;;;;;;7.97;100.00;100532.66;4887991;29;20059;-78
2023/12/21 00:56:24;;;;;;;23.85;8.88;;;;;;;7.97;100.00;100529.16;4891978;29;20025;-78
2023/12/21 00:58:50;;;;;;;20.77;7.68;;;;;;;7.98;100.00;100523.69;4911835;29;20550;-79
2023/12/21 01:01:15;;;;;;;20.83;8.55;;;;;;;7.98;100.00;100518.34;4886423;29;20032;-80
2023/12/21 01:03:40;;;;;;;24.60;8.50;;;;;;;7.98;100.00;100520.13;4892300;29;20031;-79
2023/12/21 01:06:06;;;;;;;21.25;8.13;;;;;;;7.98;100.00;100512.09;4891616;29;20430;-79
2023/12/21 01:08:31;;;;;;;20.90;8.10;;;;;;;7.98;100.00;100504.97;4894345;29;20028;-80
2023/12/21 01:10:56;;;;;;;21.88;8.05;;;;;;;7.98;100.00;100494.25;4883462;29;20028;-80
2023/12/21 01:13:21;;;;;;;20.67;8.60;;;;;;;7.98;100.00;100493.38;4883923;29;20413;-79
2023/12/21 01:15:47;;;;;;;22.15;8.57;;;;;;;7.98;100.00;100485.34;4884631;29;20050;-80
2023/12/21 01:18:12;;;;;;;22.33;8.63;;;;;;;7.98;100.00;100480.88;4875779;29;20071;-80
2023/12/21 01:20:37;;;;;;;21.30;7.18;;;;;;;7.99;100.00;100476.38;4894821;29;20079;-80
2023/12/21 01:23:03;;;;;;;20.95;7.30;;;;;;;7.98;100.00;100474.66;4882115;29;20492;-79
2023/12/21 01:25:28;;;;;;;25.55;7.85;;;;;;;7.97;100.00;100479.16;4898522;29;20035;-79
2023/12/21 01:27:54;;;;;;;21.58;7.55;;;;;;;7.97;100.00;100484.50;4899367;29;20039;-80
2023/12/21 01:30:21;;;;;;;20.02;7.65;;;;;;;7.98;100.00;100480.88;4876538;29;20036;-80
2023/12/21 01:32:46;;;;;;;20.95;8.00;;;;;;;7.98;100.00;100471.97;4875551;29;20040;-80
2023/12/21 01:35:11;;;;;;;19.55;5.95;;;;;;;7.98;100.00;100471.97;4885059;29;20043;-79
2023/12/21 01:37:39;;;;;;;20.45;7.43;;;;;;;7.98;100.00;100462.16;4895234;29;20392;-80
2023/12/21 01:40:05;;;;;;;23.02;8.15;;;;;;;7.97;100.00;100447.03;4884367;29;20081;-81
2023/12/21 01:42:30;;;;;;;20.13;6.63;;;;;;;7.99;100.00;100452.28;4883048;29;20060;-79
2023/12/21 01:44:56;;;;;;;20.75;7.82;;;;;;;7.98;100.00;100459.47;4899851;29;20115;-80
2023/12/21 01:47:21;;;;;;;20.23;7.82;;;;;;;7.99;100.00;100450.44;4881120;29;20051;-80
2023/12/21 01:49:47;;;;;;;23.70;8.52;;;;;;;7.98;100.00;100451.44;4879324;29;20099;-79
2023/12/21 01:52:12;;;;;;;25.35;8.90;;;;;;;7.98;100.00;100437.19;4897768;29;20402;-80
2023/12/21 01:54:39;;;;;;;22.65;9.00;;;;;;;7.98;100.00;100437.19;4904269;29;20040;-80
2023/12/21 01:57:04;;;;;;;22.98;9.05;;;;;;;7.98;100.00;100426.47;4898050;29;20111;-80
2023/12/21 01:59:30;;;;;;;22.83;9.10;;;;;;;7.98;100.00;100443.41;4903213;29;20111;-80
2023/12/21 02:01:56;;;;;;;24.75;9.13;;;;;;;7.99;100.00;100430.88;4901381;29;20033;-80
2023/12/21 02:04:21;;;;;;;28.17;9.70;;;;;;;7.98;100.00;100438.06;4882942;29;20029;-78
2023/12/21 02:06:47;;;;;;;26.88;10.35;;;;;;;7.97;100.00;100425.63;4907332;29;20036;-79
2023/12/21 02:09:13;;;;;;;24.23;10.57;;;;;;;7.98;100.00;100427.34;4894759;29;20341;-79
2023/12/21 02:11:38;;;;;;;22.52;10.05;;;;;;;7.98;100.00;100432.72;4908156;29;20032;-80
2023/12/21 02:14:03;;;;;;;24.00;10.00;;;;;;;7.99;100.00;100439.75;4903633;29;20464;-78
2023/12/21 02:16:56;;;;;;;22.83;9.18;;;;;;;8.00;100.00;100440.63;4904969;29;20086;-79
2023/12/21 02:19:22;;;;;;;23.85;9.75;;;;;;;8.00;100.00;100422.75;4883617;29;20182;-79
2023/12/21 02:21:50;;;;;;;22.92;9.27;;;;;;;8.00;100.00;100417.38;4909862;29;20044;-80
2023/12/21 02:24:16;;;;;;;27.30;9.38;;;;;;;8.00;100.00;100425.41;4887859;29;20072;-79
2023/12/21 02:26:42;;;;;;;23.67;9.07;;;;;;;8.02;100.00;100419.94;4909531;29;20025;-80
2023/12/21 02:29:07;;;;;;;23.85;9.65;;;;;;;8.03;100.00;100406.47;4906841;29;20440;-79
2023/12/21 02:31:33;;;;;;;27.52;8.90;;;;;;;8.04;100.00;100415.38;4905803;29;20028;-79
2023/12/21 02:33:58;;;;;;;25.05;9.68;;;;;;;8.04;100.00;100392.13;4907396;29;20021;-79
2023/12/21 02:36:23;;;;;;;22.92;9.25;;;;;;;8.04;100.00;100384.09;4886878;29;20017;-79
2023/12/21 02:38:49;;;;;;;23.40;8.25;;;;;;;8.03;100.00;100390.41;4906363;29;20064;-80
2023/12/21 02:41:14;;;;;;;23.05;8.60;;;;;;;8.04;100.00;100378.75;4911006;29;20547;-79
2023/12/21 02:43:39;;;;;;;22.95;7.85;;;;;;;8.05;100.00;100374.25;4900623;29;20044;-79
2023/12/21 02:46:05;;;;;;;20.48;7.13;;;;;;;8.04;100.00;100368.03;4888586;29;20131;-79
2023/12/21 02:48:30;;;;;;;23.65;8.00;;;;;;;8.03;100.00;100379.69;4915448;29;20039;-78
2023/12/21 02:50:56;;;;;;;20.92;8.02;;;;;;;8.04;100.00;100373.41;4892030;29;20029;-79
2023/12/21 02:53:21;;;;;;;28.05;8.00;;;;;;;8.04;100.00;100377.91;4888368;29;20088;-79
2023/12/21 02:55:47;;;;;;;22.33;8.75;;;;;;;8.04;100.00;100376.06;4892312;29;20024;-79
2023/12/21 02:58:12;;;;;;;34.15;9.52;;;;;;;8.04;100.00;100368.03;4911690;29;20039;-80
2023/12/21 03:00:37;;;;;;;28.50;8.65;;;;;;;8.06;100.00;100367.94;4915432;29;20088;-80
2023/12/21 03:03:03;;;;;;;30.33;8.07;;;;;;;8.05;100.00;100372.44;4890097;29;20035;-78
2023/12/21 03:05:28;;;;;;;25.38;8.30;;;;;;;8.05;100.00;100358.19;4908561;29;20032;-79
2023/12/21 03:07:54;;;;;;;22.23;7.40;;;;;;;8.04;100.00;100367.19;4892137;29;20080;-78
2023/12/21 03:10:19;;;;;;;25.55;7.80;;;;;;;8.05;100.00;100352.81;4898177;29;20132;-80
2023/12/21 03:12:45;;;;;;;26.15;8.43;;;;;;;8.05;100.00;100350.16;4903474;29;20496;-80
2023/12/21 03:15:10;;;;;;;22.02;7.68;;;;;;;8.05;100.00;100348.34;4897004;29;20032;-79
2023/12/21 03:17:35;;;;;;;24.00;7.03;;;;;;;8.05;100.00;100315.34;4914448;29;20088;-80
2023/12/21 03:20:03;;;;;;;21.38;7.18;;;;;;;8.06;100.00;100293.00;4886864;29;20373;-84
2023/12/21 03:22:28;;;;;;;20.15;6.70;;;;;;;8.06;100.00;100271.59;4904228;29;20058;-84
2023/12/21 03:24:53;;;;;;;25.33;7.43;;;;;;;8.05;100.00;100278.78;4887152;29;20437;-85
2023/12/21 03:27:19;;;;;;;23.23;7.50;;;;;;;8.04;100.00;100261.00;4886104;29;20111;-84
2023/12/21 03:29:44;;;;;;;19.88;6.15;;;;;;;8.05;100.00;100260.03;4883492;29;20405;-81
2023/12/21 03:32:09;;;;;;;20.27;6.68;;;;;;;8.10;100.00;100258.84;4882423;29;20496;-80
2023/12/21 03:34:35;;;;;;;24.05;6.43;;;;;;;8.09;100.00;100267.84;4888060;29;20064;-80
2023/12/21 03:37:00;;;;;;;24.10;7.00;;;;;;;8.11;100.00;100271.25;4888558;29;20403;-80
2023/12/21 03:39:25;;;;;;;19.13;6.32;;;;;;;8.09;100.00;100251.78;4894363;29;20028;-80
2023/12/21 03:41:51;;;;;;;29.45;7.95;;;;;;;8.10;100.00;100253.50;4896973;29;20050;-79
2023/12/21 03:44:16;;;;;;;24.67;6.40;;;;;;;8.10;100.00;100245.47;4900680;29;20437;-80
2023/12/21 03:46:41;;;;;;;25.58;7.07;;;;;;;8.09;100.00;100233.88;4900117;29;20124;-79
2023/12/21 03:49:06;;;;;;;21.17;6.63;;;;;;;8.09;100.00;100233.88;4884133;29;20216;-79
2023/12/21 03:51:32;;;;;;;24.58;7.20;;;;;;;8.09;100.00;100227.69;4903895;29;20330;-80
2023/12/21 03:53:57;;;;;;;18.45;6.03;;;;;;;8.10;100.00;100232.09;4900268;29;20071;-79
2023/12/21 03:56:22;;;;;;;26.73;7.72;;;;;;;8.10;100.00;100216.88;4899295;29;20062;-80
2023/12/21 03:58:48;;;;;;;25.45;7.50;;;;;;;8.10;100.00;100218.72;4879752;29;20032;-80
2023/12/21 04:01:13;;;;;;;22.15;8.23;;;;;;;8.10;100.00;100205.31;4880805;29;20484;-80
2023/12/21 04:03:38;;;;;;;22.95;7.13;;;;;;;8.10;100.00;100202.66;4902770;29;20444;-84
2023/12/21 04:06:04;;;;;;;24.02;7.53;;;;;;;8.11;100.00;100193.63;4898958;29;20032;-85
2023/12/21 04:08:29;;;;;;;23.17;8.18;;;;;;;8.11;100.00;100201.66;4883778;29;20040;-84
2023/12/21 04:10:55;;;;;;;26.98;8.60;;;;;;;8.12;100.00;100208.72;4887657;29;20491;-85
2023/12/21 04:13:20;;;;;;;24.60;8.70;;;;;;;8.13;100.00;100207.78;4880981;29;20492;-85
2023/12/21 04:15:45;;;;;;;24.17;7.60;;;;;;;8.13;100.00;100189.88;4900249;29;20084;-84
2023/12/21 04:18:11;;;;;;;25.02;8.88;;;;;;;8.14;100.00;100177.34;4881596;29;20085;-84
2023/12/21 04:20:36;;;;;;;20.95;8.07;;;;;;;8.16;100.00;100176.25;4884066;29;20042;-85
2023/12/21 04:23:01;;;;;;;25.45;9.30;;;;;;;8.17;100.00;100171.75;4883887;29;20080;-86
2023/12/21 04:25:27;;;;;;;27.15;9.52;;;;;;;8.17;100.00;100163.72;4884864;29;20475;-84
2023/12/21 04:27:52;;;;;;;27.23;9.32;;;;;;;8.18;100.00;100160.94;4900554;29;20058;-84
2023/12/21 04:30:17;;;;;;;29.08;10.52;;;;;;;8.20;100.00;100152.81;4887227;29;20038;-85
2023/12/21 04:32:43;;;;;;;22.02;9.30;;;;;;;8.20;100.00;100158.16;4896269;29;20389;-84
2023/12/21 04:35:10;;;;;;;29.25;10.60;;;;;;;8.23;100.00;100153.44;4883459;29;20396;-84
2023/12/21 04:37:35;;;;;;;27.30;10.52;;;;;;;8.25;100.00;100139.94;4897239;29;20032;-79
2023/12/21 04:40:00;;;;;;;28.10;10.07;;;;;;;8.27;100.00;100127.25;4907244;29;20039;-79
2023/12/21 04:42:26;;;;;;;24.88;9.73;;;;;;;8.29;100.00;100119.16;4891948;29;20108;-79
2023/12/21 04:44:51;;;;;;;26.38;10.35;;;;;;;8.31;100.00;100112.69;4909341;29;20020;-80
2023/12/21 04:47:16;;;;;;;25.13;9.80;;;;;;;8.33;100.00;100132.19;4910022;29;20024;-80
2023/12/21 04:49:41;;;;;;;25.27;9.80;;;;;;;8.35;100.00;100126.72;4891540;29;20036;-79
2023/12/21 04:52:07;;;;;;;30.67;10.98;;;;;;;8.36;100.00;100105.19;4885507;29;20512;-79
2023/12/21 04:54:32;;;;;;;23.13;9.65;;;;;;;8.37;100.00;100073.88;4893977;29;20025;-80
2023/12/21 04:56:57;;;;;;;25.05;8.95;;;;;;;8.38;100.00;100092.50;4889771;29;20047;-80
2023/12/21 04:59:23;;;;;;;25.13;9.23;;;;;;;8.40;100.00;100090.59;4891171;29;20028;-80
2023/12/21 05:01:50;;;;;;;25.33;9.35;;;;;;;8.41;100.00;100067.34;4907599;29;20037;-81
2023/12/21 05:04:16;;;;;;;25.38;9.10;;;;;;;8.42;100.00;100076.22;4907825;29;20028;-80
2023/12/21 05:06:41;;;;;;;26.85;10.00;;;;;;;8.43;100.00;100057.34;4885811;29;20039;-80
2023/12/21 05:09:06;;;;;;;29.20;9.68;;;;;;;8.42;100.00;100052.97;4902155;29;20016;-79
2023/12/21 05:11:32;;;;;;;23.73;8.93;;;;;;;8.44;100.00;100051.06;4894968;29;20028;-80
2023/12/21 05:13:57;;;;;;;22.48;8.25;;;;;;;8.44;100.00;100066.25;4912955;29;20028;-79
2023/12/21 05:16:22;;;;;;;22.10;7.82;;;;;;;8.45;100.00;100063.47;4911652;29;20088;-78
2023/12/21 05:18:49;;;;;;;23.30;7.88;;;;;;;8.45;100.00;100059.94;4907187;29;20041;-80
2023/12/21 05:21:14;;;;;;;21.85;7.93;;;;;;;8.46;100.00;100067.84;4919004;29;20064;-80
2023/12/21 05:23:40;;;;;;;23.58;7.97;;;;;;;8.47;100.00;100058.00;4911364;29;20033;-79
2023/12/21 05:26:12;;;;;;;21.88;7.03;;;;;;;8.49;100.00;100077.47;4906561;29;20032;-80
2023/12/21 05:28:39;;;;;;;22.33;6.75;;;;;;;8.50;100.00;100069.31;4898392;29;20060;-80
2023/12/21 05:31:06;;;;;;;33.88;7.35;;;;;;;8.51;100.00;100038.06;4891668;29;20111;-81
2023/12/21 05:33:31;;;;;;;24.30;7.53;;;;;;;8.52;100.00;100034.38;4903880;29;20043;-80
2023/12/21 05:35:57;;;;;;;22.15;6.75;;;;;;;8.54;100.00;100024.44;4902248;29;20040;-79
2023/12/21 05:38:22;;;;;;;23.00;6.53;;;;;;;8.55;100.00;100034.16;4907203;29;20020;-79
2023/12/21 05:40:47;;;;;;;21.48;6.40;;;;;;;8.56;100.00;100020.66;4903828;29;20096;-79
2023/12/21 05:43:12;;;;;;;21.73;5.75;;;;;;;8.58;100.00;100012.50;4879609;29;20087;-78
2023/12/21 05:45:38;;;;;;;21.52;6.32;;;;;;;8.59;100.00;100034.78;4883947;29;20047;-80
2023/12/21 05:48:03;;;;;;;25.65;7.07;;;;;;;8.61;100.00;100041.72;4904206;29;20032;-79
2023/12/21 05:50:29;;;;;;;21.52;5.65;;;;;;;8.63;100.00;100045.13;4890531;29;20113;-78
2023/12/21 05:52:54;;;;;;;17.80;5.07;;;;;;;8.64;100.00;100037.94;4895563;29;20035;-79
2023/12/21 05:55:20;;;;;;;19.35;5.10;;;;;;;8.64;100.00;100028.09;4905647;29;20147;-78
2023/12/21 05:57:45;;;;;;;16.60;5.30;;;;;;;8.65;100.00;100029.78;4900143;29;20377;-78
2023/12/21 06:00:11;;;;;;;18.58;5.55;;;;;;;8.65;100.00;100035.13;4892211;29;20485;-78
2023/12/21 06:02:36;;;;;;;20.30;5.63;;;;;;;8.65;100.00;100040.50;4897092;29;20087;-78
2023/12/21 06:05:02;;;;;;;18.58;6.07;;;;;;;8.66;100.00;100036.00;4892072;29;20039;-79
2023/12/21 06:07:27;;;;;;;19.17;5.60;;;;;;;8.66;100.00;100031.50;4895477;29;20127;-78
2023/12/21 06:09:52;;;;;;;26.55;6.22;;;;;;;8.65;100.00;100027.09;4913249;29;20110;-77
2023/12/21 06:12:18;;;;;;;20.63;5.78;;;;;;;8.63;100.00;100026.38;4914306;29;20498;-78
2023/12/21 06:14:43;;;;;;;21.25;7.03;;;;;;;8.63;100.00;100018.34;4908765;29;20043;-78
2023/12/21 06:17:10;;;;;;;17.80;5.97;;;;;;;8.62;100.00;100011.28;4892985;29;20035;-79
2023/12/21 06:19:36;;;;;;;19.77;5.68;;;;;;;8.59;100.00;100008.84;4888094;29;20052;-78
2023/12/21 06:22:01;;;;;;;21.95;6.90;;;;;;;8.56;100.00;99993.88;4911018;29;20361;-78
2023/12/21 06:24:26;;;;;;;20.40;7.20;;;;;;;8.56;100.00;99976.94;4910192;29;20060;-78
2023/12/21 06:26:52;;;;;;;19.90;7.63;;;;;;;8.52;100.00;99960.28;4899307;29;20052;-78
2023/12/21 06:29:17;;;;;;;20.05;6.88;;;;;;;8.51;100.00;99961.25;4894227;29;20062;-78
2023/12/21 06:31:42;;;;;;;22.73;7.65;;;;;;;8.50;100.00;99966.72;4907933;29;20029;-78
2023/12/21 06:34:07;;;;;;;20.50;7.35;;;;;;;8.50;100.00;99972.06;4894403;29;20142;-79
2023/12/21 06:36:33;;;;;;;20.23;7.13;;;;;;;8.49;100.00;99976.59;4914965;29;20025;-80
2023/12/21 06:38:59;;;;;;;28.65;7.82;;;;;;;8.50;100.00;99988.16;4914673;29;20040;-78
2023/12/21 06:41:24;;;;;;;23.27;7.30;;;;;;;8.49;100.00;99968.56;4898559;29;20047;-79
2023/12/21 06:43:49;;;;;;;22.70;7.45;;;;;;;8.49;100.00;99959.66;4903069;29;20043;-78
2023/12/21 06:46:20;;;;;;;23.63;7.50;;;;;;;8.49;100.00;99967.69;4895183;29;20029;-80
2023/12/21 06:48:45;;;;;;;20.83;6.03;;;;;;;8.48;100.00;99964.16;4913673;29;20100;-78
2023/12/21 06:51:12;;;;;;;20.70;6.60;;;;;;;8.50;100.00;99959.53;4891784;29;20471;-77
2023/12/21 06:53:38;;;;;;;20.42;6.35;;;;;;;8.50;100.00;99953.31;4905262;29;20104;-78
2023/12/21 06:56:04;;;;;;;20.33;6.10;;;;;;;8.51;100.00;99957.72;4897944;29;20021;-78
2023/12/21 06:58:29;;;;;;;23.73;5.82;;;;;;;8.51;100.00;99928.25;4902966;29;20016;-80
2023/12/21 07:00:54;;;;;;;18.45;4.93;;;;;;;8.51;100.00;99921.06;4917815;29;20036;-80
2023/12/21 07:03:22;;;;;;;21.27;5.93;;;;;;;8.53;100.00;99907.56;4895614;29;20051;-80
2023/12/21 07:05:49;;;;;;;19.52;6.00;;;;;;;8.52;100.00;99913.88;4914025;29;20032;-79
2023/12/21 07:08:15;;;;;;;20.00;5.35;;;;;;;8.54;100.00;99904.75;4895124;29;20481;-79
2023/12/21 07:10:40;;;;;;;17.77;5.05;;;;;;;8.55;100.00;99893.06;4918444;29;20032;-79
2023/12/21 07:13:05;;;;;;;20.30;4.97;;;;;;;8.55;100.00;99897.56;4895564;29;20028;-80
2023/12/21 07:15:31;;;;;;;20.48;6.00;;;;;;;8.55;100.00;99886.84;4899031;29;20017;-79
2023/12/21 07:17:56;;;;;;;20.60;5.88;;;;;;;8.57;100.00;99895.63;4903385;29;20052;-81
2023/12/21 07:20:24;;;;;;;19.73;5.30;;;;;;;8.58;100.00;99902.69;4898274;29;20045;-80
2023/12/21 07:22:50;;;;;;;19.42;5.07;;;;;;;8.58;100.00;99897.34;4895871;29;20084;-81
2023/12/21 07:25:16;;;;;;;17.83;5.47;;;;;;;8.59;100.00;99885.63;4915407;29;20028;-80
2023/12/21 07:27:41;;;;;;;20.35;5.70;;;;;;;8.60;100.00;99862.41;4913398;29;20416;-80
2023/12/21 07:30:07;;;;;;;23.05;5.75;;;;;;;8.61;100.00;99867.63;4918288;29;20040;-79
2023/12/21 07:32:32;;;;;;;15.25;5.10;;;;;;;8.63;100.00;99864.81;4902441;29;20026;-80
2023/12/21 07:34:58;;;;;;;18.48;5.00;;;;;;;8.65;100.00;99860.19;4901000;29;20052;-79
2023/12/21 07:37:23;;;;;;;17.45;4.28;;;;;;;8.66;100.00;99860.06;4920519;29;20055;-79
2023/12/21 07:39:48;;;;;;;13.65;4.57;;;;;;;8.68;100.00;99836.69;4913579;29;20100;-80
2023/12/21 07:42:14;;;;;;;14.25;4.57;;;;;;;8.71;100.00;99820.38;4897803;29;20051;-82
2023/12/21 07:44:39;;;;;;;19.17;4.75;;;;;;;8.74;100.00;99830.81;4907174;29;20037;-81
2023/12/21 07:47:04;;;;;;;19.58;5.07;;;;;;;8.77;100.00;99823.50;4906760;29;20020;-79
2023/12/21 07:49:29;;;;;;;14.98;4.95;;;;;;;8.78;100.00;99838.59;4903530;29;20028;-79
2023/12/21 07:51:55;;;;;;;20.90;5.03;;;;;;;8.80;100.00;99840.19;4899976;29;20017;-80
2023/12/21 07:54:20;;;;;;;15.27;4.55;;;;;;;8.82;100.00;99810.59;4902648;29;20064;-81
2023/12/21 07:56:46;;;;;;;12.60;4.25;;;;;;;8.83;100.00;99828.34;4902289;29;20059;-79
2023/12/21 07:59:13;;;;;;;12.77;4.28;;;;;;;8.85;100.00;99826.41;4916918;29;20105;-79
2023/12/21 08:01:38;;;;;;;15.25;5.13;;;;;;;8.84;100.00;99836.25;4911204;29;20052;-81
2023/12/21 08:04:04;;;;;;;16.50;4.70;;;;;;;8.83;100.00;99833.72;4903684;29;20040;-81
2023/12/21 08:06:30;;;;;;;14.80;4.65;;;;;;;8.81;100.00;99820.44;4908991;29;20044;-79
2023/12/21 08:08:56;;;;;;;17.50;4.35;;;;;;;8.78;100.00;99820.69;4925141;29;20096;-79
2023/12/21 08:11:21;;;;;;;13.20;3.90;;;;;;;8.78;100.00;99819.84;4901858;29;20024;-81
2023/12/21 08:13:48;;;;;;;14.27;4.63;;;;;;;8.78;100.00;99809.97;4920176;29;20055;-79
2023/12/21 08:16:13;;;;;;;19.67;4.82;;;;;;;8.76;100.00;99805.75;4909310;29;20032;-81
2023/12/21 08:18:38;;;;;;;16.90;4.65;;;;;;;8.73;100.00;99807.69;4894157;29;20140;-79
2023/12/21 08:21:04;;;;;;;17.23;4.47;;;;;;;8.71;100.00;99798.94;4909802;29;20060;-82
2023/12/21 08:23:29;;;;;;;16.83;4.20;;;;;;;8.73;100.00;99796.13;4881447;29;20021;-81
2023/12/21 08:25:55;;;;;;;18.30;4.65;;;;;;;8.71;100.00;99782.00;4902151;29;20025;-81
2023/12/21 08:28:20;;;;;;;12.52;4.07;;;;;;;8.70;100.00;99791.88;4901848;29;20036;-82
2023/12/21 08:30:45;;;;;;;15.18;3.90;;;;;;;8.70;100.00;99793.69;4901277;29;20064;-79
2023/12/21 08:33:11;;;;;;;12.77;3.72;;;;;;;8.70;100.00;99797.22;4903870;29;20020;-82
2023/12/21 08:35:36;;;;;;;17.48;4.57;;;;;;;8.71;100.00;99801.63;4885401;29;20028;-82
2023/12/21 08:38:02;;;;;;;14.52;4.60;;;;;;;8.70;100.00;99783.84;4884326;29;20025;-82
2023/12/21 08:40:28;;;;;;;12.35;4.18;;;;;;;8.70;100.00;99802.59;4909096;29;20047;-83
2023/12/21 08:42:54;;;;;;;11.57;3.97;;;;;;;8.71;100.00;99774.81;4900306;29;20020;-80
2023/12/21 08:45:19;;;;;;;13.68;3.88;;;;;;;8.71;100.00;99777.50;4882778;29;20045;-81
2023/12/21 08:47:44;;;;;;;14.52;4.32;;;;;;;8.71;100.00;99774.81;4885946;29;20041;-81
2023/12/21 08:50:11;;;;;;;13.15;4.50;;;;;;;8.72;100.00;99773.81;4898621;29;20032;-81
2023/12/21 08:52:39;;;;;;;18.95;4.55;;;;;;;8.73;100.00;99770.19;4884222;29;20150;-80
2023/12/21 08:55:05;;;;;;;13.35;3.75;;;;;;;8.74;100.00;99765.66;4887046;29;20026;-80
2023/12/21 08:57:34;;;;;;;12.15;4.20;;;;;;;8.73;100.00;99747.91;4904556;29;20120;-81
2023/12/21 09:00:03;;;;;;;15.18;4.53;;;;;;;8.73;100.00;99767.50;4906142;29;20053;-82
2023/12/21 09:02:28;;;;;;;19.33;4.88;;;;;;;8.73;100.00;99754.09;4901553;29;20040;-80
2023/12/21 09:04:54;;;;;;;20.10;4.93;;;;;;;8.74;100.00;99755.81;4904412;29;20128;-82
2023/12/21 09:07:19;;;;;;;14.98;3.95;;;;;;;8.77;100.00;99753.84;4901864;29;20012;-81
2023/12/21 09:09:45;;;;;;;12.63;3.78;;;;;;;8.77;100.00;99733.28;4895735;29;20033;-79
2023/12/21 09:12:10;;;;;;;19.42;4.95;;;;;;;8.79;100.00;99739.34;4875663;29;20017;-79
2023/12/21 09:14:35;;;;;;;15.18;4.32;;;;;;;8.81;100.00;99734.69;4882581;29;20071;-80
2023/12/21 09:17:01;;;;;;;16.55;4.80;;;;;;;8.85;100.00;99746.88;4893337;29;20117;-80
2023/12/21 09:19:27;;;;;;;13.40;4.10;;;;;;;8.87;100.00;99744.06;4889799;29;20048;-80
2023/12/21 09:21:53;;;;;;;11.13;3.85;;;;;;;8.90;100.00;99739.31;4905908;29;20523;-79
2023/12/21 09:24:18;;;;;;;14.52;3.95;;;;;;;8.91;100.00;99730.28;4895372;29;20160;-80
2023/12/21 09:26:43;;;;;;;20.25;4.18;;;;;;;8.94;100.00;99729.16;4883548;29;20110;-79
2023/12/21 09:29:08;;;;;;;11.95;3.90;;;;;;;8.96;100.00;99721.88;4897858;29;20032;-79
2023/12/21 09:31:34;;;;;;;11.43;3.80;;;;;;;8.97;100.00;99722.72;4881562;29;20055;-79
2023/12/21 09:33:59;;;;;;;14.05;3.63;;;;;;;8.97;100.00;99731.59;4887054;29;20047;-79
2023/12/21 09:36:25;;;;;;;13.38;3.78;;;;;;;8.98;100.00;99713.69;4901772;29;20461;-79
2023/12/21 09:38:51;;;;;;;13.27;3.50;;;;;;;8.99;100.00;99708.19;4904273;29;20104;-79
2023/12/21 09:41:16;;;;;;;13.02;3.20;;;;;;;9.00;100.00;99706.38;4899372;29;20617;-79
2023/12/21 09:43:43;;;;;;;14.18;3.58;;;;;;;9.04;100.00;99721.22;4903699;29;20127;-80
2023/12/21 09:46:09;;;;;;;11.80;2.55;;;;;;;9.06;100.00;99717.41;4897861;29;20061;-79
2023/12/21 09:48:37;;;;;;;12.80;3.00;;;;;;;9.09;100.00;99698.41;4880802;29;20028;-80
2023/12/21 09:51:04;;;;;;;10.40;2.85;;;;;;;9.14;100.00;99707.88;4883730;29;20029;-80
2023/12/21 09:53:31;;;;;;;15.18;3.10;;;;;;;9.17;100.00;99696.88;4883532;29;20513;-80
2023/12/21 09:55:57;;;;;;;19.95;3.20;;;;;;;9.21;100.00;99696.50;4887493;29;20088;-79
2023/12/21 09:58:23;;;;;;;9.63;2.80;;;;;;;9.24;100.00;99717.66;4906416;29;20032;-80
2023/12/21 10:00:48;;;;;;;16.65;3.08;;;;;;;9.28;100.00;99694.09;4888062;29;20059;-84
2023/12/21 10:03:13;;;;;;;11.02;3.17;;;;;;;9.33;100.00;99691.91;4903696;29;20040;-84
2023/12/21 10:05:40;;;;;;;15.20;3.15;;;;;;;9.37;100.00;99682.59;4878496;29;20032;-85
2023/12/21 10:08:06;;;;;;;13.95;3.92;;;;;;;9.40;100.00;99698.44;4899249;29;20024;-82
2023/12/21 10:10:31;;;;;;;13.80;3.20;;;;;;;9.44;100.00;99689.13;4899789;29;20055;-83
2023/12/21 10:12:56;;;;;;;16.75;2.90;;;;;;;9.48;100.00;99678.13;4903482;29;20036;-83
2023/12/21 10:15:22;;;;;;;16.52;2.95;;;;;;;9.51;100.00;99702.84;4885032;29;20111;-83
2023/12/21 10:17:47;;;;;;;12.88;3.08;;;;;;;9.56;100.00;99707.81;4904175;29;20084;-81
2023/12/21 10:20:12;;;;;;;41.38;7.65;;;;;;;9.62;100.00;99702.75;4901219;29;20032;-83
2023/12/21 10:22:43;;;;;;;13.30;2.90;;;;;;;9.62;100.00;99689.34;4885050;29;20448;-83
2023/12/21 10:25:12;;;;;;;14.82;2.95;;;;;;;9.65;100.00;99695.41;4885774;29;20031;-80
2023/12/21 10:27:37;;;;;;;16.13;3.10;;;;;;;9.65;100.00;99701.66;4903790;29;20032;-81
2023/12/21 10:30:04;;;;;;;16.55;2.65;;;;;;;9.67;100.00;99705.03;4894755;29;20430;-86
2023/12/21 10:32:29;;;;;;;13.50;2.97;;;;;;;9.67;100.00;99686.25;4882500;29;20115;-84
2023/12/21 10:34:58;;;;;;;19.45;3.47;;;;;;;9.66;100.00;99694.44;4898260;29;20905;-85
2023/12/21 10:37:23;;;;;;;14.65;2.80;;;;;;;9.65;100.00;99698.97;4897905;29;20053;-84
2023/12/21 10:39:49;;;;;;;12.27;2.22;;;;;;;9.65;100.00;99687.38;4886942;29;20035;-85
2023/12/21 10:42:14;;;;;;;13.40;2.78;;;;;;;9.67;100.00;99682.72;4901132;29;20488;-85
2023/12/21 10:44:50;;;;;;;12.88;2.63;;;;;;;9.70;100.00;99677.09;4884823;29;20077;-84
2023/12/21 10:47:19;;;;;;;7.75;2.22;;;;;;;9.70;100.00;99699.41;4891112;29;20516;-85
2023/12/21 10:49:45;;;;;;;9.10;2.30;;;;;;;9.74;100.00;99690.09;4884565;29;20046;-85
2023/12/21 10:52:11;;;;;;;13.40;2.88;;;;;;;9.74;100.00;99700.81;4895722;29;20028;-85
2023/12/21 10:54:40;;;;;;;15.50;2.83;;;;;;;9.74;100.00;99695.47;4874660;29;20123;-86
2023/12/21 10:57:07;;;;;;;13.75;2.45;;;;;;;9.71;100.00;99679.63;4885727;29;20024;-84
2023/12/21 10:59:33;;;;;;;12.65;3.05;;;;;;;9.69;100.00;99670.84;4897289;29;20527;-85
2023/12/21 11:01:59;;;;;;;11.38;2.55;;;;;;;9.68;100.00;99690.66;4895165;29;20038;-84
2023/12/21 11:04:27;;;;;;;10.32;2.30;;;;;;;9.69;100.00;99678.91;4879535;29;20120;-85
2023/12/21 11:06:54;;;;;;;12.73;2.30;;;;;;;9.71;100.00;99655.50;4885067;29;20070;-84
2023/12/21 11:09:22;;;;;;;13.90;2.53;;;;;;;9.74;100.00;99647.16;4898988;29;20024;-85
2023/12/21 11:11:47;;;;;;;16.67;3.08;;;;;;;9.76;100.00;99649.72;4885728;29;20031;-83